Time;durP1;ratioP1;P1;durP2;ratioP2;P2;SDS_P1;SDS_P2;PMS_P1;PMS_P2;Temp;Humidity;BMP_temperature;BMP_pressure;BME280_temperature;BME280_humidity;BME280_pressure;Samples;Min_cycle;Max_cycle;Signal;HPM_P1;HPM_P2
2021/01/20 00:01:22;;;;;;;14.73;9.60;;;7.40;94.00;;;;;;5048764;28;20469;-66
2021/01/20 00:03:48;;;;;;;16.80;9.75;;;7.40;93.80;;;;;;5046367;28;20091;-66
2021/01/20 00:06:13;;;;;;;14.15;8.57;;;7.30;93.70;;;;;;5046400;28;20612;-66
2021/01/20 00:08:39;;;;;;;14.90;10.18;;;7.30;93.60;;;;;;5045913;28;20435;-66
2021/01/20 00:11:05;;;;;;;14.77;10.23;;;7.30;94.00;;;;;;5049891;28;20029;-67
2021/01/20 00:13:30;;;;;;;12.73;9.50;;;7.30;93.50;;;;;;5048243;28;20056;-66
2021/01/20 00:15:56;;;;;;;13.60;10.10;;;7.20;93.60;;;;;;5047783;28;20033;-66
2021/01/20 00:18:22;;;;;;;15.88;10.63;;;7.20;94.10;;;;;;5048354;28;20032;-67
2021/01/20 00:20:47;;;;;;;15.27;10.60;;;7.10;94.40;;;;;;5050632;28;20025;-66
2021/01/20 00:23:13;;;;;;;15.70;10.60;;;7.10;94.00;;;;;;5045708;28;20029;-67
2021/01/20 00:25:39;;;;;;;16.23;11.13;;;7.10;93.50;;;;;;5049464;28;20032;-67
2021/01/20 00:28:04;;;;;;;16.52;11.90;;;7.10;93.90;;;;;;5046036;28;20087;-67
2021/01/20 00:30:30;;;;;;;13.65;8.80;;;7.00;93.80;;;;;;5048773;28;20483;-67
2021/01/20 00:32:57;;;;;;;15.95;11.45;;;7.00;93.70;;;;;;5048397;28;20627;-67
2021/01/20 00:35:24;;;;;;;18.55;11.70;;;6.90;94.10;;;;;;5043491;28;20080;-67
2021/01/20 00:37:49;;;;;;;17.33;12.18;;;7.00;93.90;;;;;;5034887;28;20460;-66
2021/01/20 00:40:16;;;;;;;20.73;12.93;;;7.00;93.90;;;;;;5046625;28;20132;-66
2021/01/20 00:42:41;;;;;;;17.83;11.63;;;7.00;94.00;;;;;;5030114;28;20151;-66
2021/01/20 00:45:08;;;;;;;19.38;13.07;;;6.90;93.90;;;;;;5049117;28;20167;-67
2021/01/20 00:50:01;;;;;;;19.83;13.50;;;6.90;93.90;;;;;;5070921;22;20060;-67
2021/01/20 00:52:26;;;;;;;19.15;13.77;;;6.90;93.50;;;;;;5047359;28;20029;-65
2021/01/20 00:54:52;;;;;;;21.27;15.05;;;6.90;93.30;;;;;;5045915;28;20020;-65
2021/01/20 00:57:17;;;;;;;18.98;14.57;;;6.90;93.50;;;;;;5046472;28;20119;-65
2021/01/20 00:59:43;;;;;;;21.13;15.05;;;6.90;93.40;;;;;;5039112;28;20025;-65
2021/01/20 01:02:09;;;;;;;20.88;15.38;;;6.90;93.50;;;;;;5049424;28;20086;-64
2021/01/20 01:04:34;;;;;;;22.98;15.25;;;6.90;93.70;;;;;;5047470;28;20033;-65
2021/01/20 01:07:00;;;;;;;22.95;16.70;;;6.80;93.90;;;;;;5041936;28;20041;-67
2021/01/20 01:09:25;;;;;;;20.83;16.52;;;6.80;93.60;;;;;;5032287;28;20044;-66
2021/01/20 01:11:51;;;;;;;21.02;16.00;;;6.80;93.80;;;;;;5049148;28;20024;-66
2021/01/20 01:14:16;;;;;;;21.63;16.75;;;6.70;93.80;;;;;;5047111;28;20048;-66
2021/01/20 01:16:42;;;;;;;24.50;16.20;;;6.80;93.30;;;;;;5048068;28;20032;-67
2021/01/20 01:19:08;;;;;;;23.05;16.63;;;6.70;93.60;;;;;;5045145;28;20271;-68
2021/01/20 01:21:34;;;;;;;21.20;15.25;;;6.70;93.40;;;;;;5039250;28;20108;-68
2021/01/20 01:23:59;;;;;;;20.88;15.43;;;6.70;92.90;;;;;;5046685;28;20478;-68
2021/01/20 01:26:25;;;;;;;23.00;16.20;;;6.60;93.40;;;;;;5048127;28;20075;-68
2021/01/20 01:28:51;;;;;;;20.33;14.57;;;6.60;93.30;;;;;;5047299;28;20025;-68
2021/01/20 01:31:16;;;;;;;23.08;16.50;;;6.50;93.40;;;;;;5023977;28;20024;-68
2021/01/20 01:33:42;;;;;;;25.45;15.98;;;6.50;93.50;;;;;;5038799;28;20021;-68
2021/01/20 01:36:08;;;;;;;21.63;15.95;;;6.50;92.90;;;;;;5051498;28;20029;-68
2021/01/20 01:38:33;;;;;;;23.40;16.63;;;6.50;93.20;;;;;;5049897;28;20545;-68
2021/01/20 01:40:59;;;;;;;22.17;15.90;;;6.50;93.20;;;;;;5038970;28;20029;-67
2021/01/20 01:43:24;;;;;;;21.38;16.10;;;6.40;92.90;;;;;;5034955;28;20035;-67
2021/01/20 01:45:50;;;;;;;20.63;15.40;;;6.40;92.60;;;;;;5050947;28;20511;-68
2021/01/20 01:48:16;;;;;;;21.90;14.70;;;6.40;92.50;;;;;;5032140;28;20278;-68
2021/01/20 01:50:42;;;;;;;21.55;15.98;;;6.40;93.10;;;;;;5050341;28;20104;-68
2021/01/20 01:53:09;;;;;;;20.27;14.68;;;6.30;92.90;;;;;;5046236;28;20026;-68
2021/01/20 01:55:36;;;;;;;23.77;16.10;;;6.40;92.70;;;;;;5044542;28;20021;-68
2021/01/20 01:58:02;;;;;;;24.80;15.73;;;6.30;92.70;;;;;;5042643;28;20051;-68
2021/01/20 02:00:28;;;;;;;19.83;15.50;;;6.30;92.80;;;;;;5046284;28;20420;-68
2021/01/20 02:02:53;;;;;;;23.20;14.98;;;6.30;92.80;;;;;;5052033;28;20040;-68
2021/01/20 02:05:19;;;;;;;27.17;14.93;;;6.20;93.00;;;;;;5048363;28;20033;-68
2021/01/20 02:07:46;;;;;;;20.88;14.55;;;6.20;93.20;;;;;;5051709;28;20025;-67
2021/01/20 02:10:12;;;;;;;22.70;14.45;;;6.10;93.00;;;;;;5049386;28;20029;-68
2021/01/20 02:12:41;;;;;;;18.15;13.60;;;6.20;92.70;;;;;;5046584;28;20029;-68
2021/01/20 02:15:31;;;;;;;21.25;14.20;;;6.20;92.30;;;;;;5049946;28;20031;-68
2021/01/20 02:18:02;;;;;;;20.20;14.57;;;6.20;92.60;;;;;;5036803;28;20029;-68
2021/01/20 02:20:34;;;;;;;22.55;14.07;;;6.20;92.30;;;;;;5034220;28;20025;-68
2021/01/20 02:23:04;;;;;;;20.92;13.68;;;6.10;92.50;;;;;;5047725;28;20477;-68
2021/01/20 02:25:33;;;;;;;21.85;13.07;;;6.10;92.40;;;;;;5050961;28;20032;-66
2021/01/20 02:28:10;;;;;;;19.00;12.63;;;6.10;92.40;;;;;;5049670;28;20025;-66
2021/01/20 02:30:38;;;;;;;20.90;12.50;;;6.10;92.40;;;;;;5051224;28;20090;-66
2021/01/20 02:33:06;;;;;;;17.20;12.20;;;6.10;91.80;;;;;;5051914;28;20029;-68
2021/01/20 02:35:32;;;;;;;20.55;11.82;;;6.10;91.50;;;;;;5048464;28;20028;-68
2021/01/20 02:38:01;;;;;;;19.92;12.10;;;6.10;91.70;;;;;;5049311;28;20298;-68
2021/01/20 02:40:26;;;;;;;17.23;11.25;;;6.10;91.80;;;;;;5045419;28;20029;-68
2021/01/20 02:42:52;;;;;;;17.35;11.35;;;6.00;92.00;;;;;;5048973;28;20563;-68
2021/01/20 02:45:18;;;;;;;20.08;11.55;;;6.10;91.50;;;;;;5050024;28;20036;-68
2021/01/20 02:47:45;;;;;;;17.42;10.73;;;6.10;91.60;;;;;;5049786;28;20401;-68
2021/01/20 02:50:12;;;;;;;16.88;11.15;;;6.10;91.40;;;;;;5047739;28;20021;-67
2021/01/20 02:52:49;;;;;;;18.27;10.82;;;6.10;91.40;;;;;;5043146;28;20383;-68
2021/01/20 02:55:19;;;;;;;19.02;10.27;;;6.10;91.30;;;;;;5047427;28;20025;-68
2021/01/20 02:57:48;;;;;;;16.83;10.25;;;6.10;91.00;;;;;;5048555;28;20033;-68
2021/01/20 03:00:16;;;;;;;15.13;10.52;;;6.10;91.30;;;;;;5042843;28;20032;-68
2021/01/20 03:02:47;;;;;;;21.05;11.05;;;6.10;92.00;;;;;;5049912;28;20029;-68
2021/01/20 03:05:17;;;;;;;15.75;11.55;;;6.00;92.30;;;;;;5048866;28;20041;-68
2021/01/20 03:07:43;;;;;;;17.48;10.27;;;6.00;91.90;;;;;;5032823;28;20429;-68
2021/01/20 03:10:10;;;;;;;17.98;10.40;;;6.00;92.00;;;;;;5035182;28;20033;-68
2021/01/20 03:12:36;;;;;;;17.23;11.75;;;6.00;92.20;;;;;;5047045;28;20032;-68
2021/01/20 03:15:06;;;;;;;18.35;11.77;;;6.00;92.10;;;;;;5049245;28;20223;-68
2021/01/20 03:17:32;;;;;;;21.00;11.82;;;6.00;92.10;;;;;;5049904;28;20405;-68
2021/01/20 03:19:58;;;;;;;19.15;11.80;;;6.00;92.10;;;;;;5047277;28;20117;-68
2021/01/20 03:22:24;;;;;;;19.92;12.07;;;6.00;91.70;;;;;;5047482;28;20049;-68
2021/01/20 03:24:49;;;;;;;20.52;12.45;;;6.10;91.60;;;;;;5045064;28;20542;-68
2021/01/20 03:27:15;;;;;;;18.70;12.40;;;5.90;92.10;;;;;;5050100;28;20028;-67
2021/01/20 03:29:41;;;;;;;16.55;11.27;;;5.90;92.20;;;;;;5048225;28;20481;-68
2021/01/20 03:32:06;;;;;;;18.52;12.02;;;6.00;91.40;;;;;;5050834;28;20029;-68
2021/01/20 03:34:32;;;;;;;18.73;12.85;;;6.00;91.30;;;;;;5045092;28;20048;-68
2021/01/20 03:36:57;;;;;;;17.00;12.77;;;6.00;91.70;;;;;;5050361;28;20111;-68
2021/01/20 03:39:23;;;;;;;20.48;12.68;;;6.00;91.50;;;;;;5023023;28;20044;-68
2021/01/20 03:41:48;;;;;;;17.67;12.40;;;5.90;91.70;;;;;;5044020;28;20041;-68
2021/01/20 03:44:14;;;;;;;20.90;12.43;;;6.00;91.50;;;;;;5046951;28;20378;-68
2021/01/20 03:46:39;;;;;;;19.33;13.02;;;5.90;92.00;;;;;;5050162;28;20159;-67
2021/01/20 03:49:05;;;;;;;18.05;11.93;;;5.80;92.20;;;;;;5026420;28;20505;-68
2021/01/20 03:51:31;;;;;;;22.17;13.00;;;5.80;92.00;;;;;;5033996;28;20029;-68
2021/01/20 03:53:57;;;;;;;21.60;12.23;;;5.90;92.10;;;;;;5043794;28;20043;-68
2021/01/20 03:56:23;;;;;;;19.67;12.95;;;5.80;92.20;;;;;;5050068;28;20036;-68
2021/01/20 03:58:49;;;;;;;24.08;12.27;;;5.80;92.10;;;;;;5041756;28;20021;-68
2021/01/20 04:01:14;;;;;;;18.98;12.55;;;5.80;92.40;;;;;;5049392;28;20504;-68
2021/01/20 04:03:40;;;;;;;21.52;13.68;;;5.70;93.00;;;;;;5048756;28;20496;-68
2021/01/20 04:06:05;;;;;;;18.95;12.85;;;5.60;93.40;;;;;;5038716;28;20029;-68
2021/01/20 04:08:31;;;;;;;16.98;13.13;;;5.60;93.70;;;;;;5046594;28;20094;-68
2021/01/20 04:10:57;;;;;;;21.05;13.23;;;5.60;93.40;;;;;;5027013;28;20029;-68
2021/01/20 04:13:25;;;;;;;21.58;13.55;;;5.50;94.20;;;;;;5029963;28;20092;-68
2021/01/20 04:15:51;;;;;;;17.05;12.23;;;5.50;94.10;;;;;;5042506;28;20116;-68
2021/01/20 04:18:17;;;;;;;19.45;12.65;;;5.50;93.70;;;;;;5038049;28;20486;-68
2021/01/20 04:20:42;;;;;;;17.77;12.15;;;5.50;93.70;;;;;;5048647;28;20131;-68
2021/01/20 04:23:08;;;;;;;24.27;12.40;;;5.50;94.10;;;;;;5038313;28;20485;-68
2021/01/20 04:25:33;;;;;;;17.20;11.82;;;5.40;94.30;;;;;;5047679;28;20098;-67
2021/01/20 04:28:00;;;;;;;15.23;9.75;;;5.50;93.20;;;;;;5049355;28;20017;-68
2021/01/20 04:30:25;;;;;;;17.80;10.40;;;5.60;93.00;;;;;;5045448;28;20031;-68
2021/01/20 04:32:51;;;;;;;17.92;10.55;;;5.50;93.60;;;;;;5040478;28;20025;-68
2021/01/20 04:35:18;;;;;;;15.25;9.88;;;5.50;93.10;;;;;;5043527;28;20021;-68
2021/01/20 04:37:43;;;;;;;14.02;9.80;;;5.50;92.90;;;;;;5044217;28;20021;-67
2021/01/20 04:40:09;;;;;;;17.58;9.40;;;5.50;92.70;;;;;;5047590;28;20167;-68
2021/01/20 04:42:35;;;;;;;14.05;9.07;;;5.50;92.90;;;;;;5047983;28;20032;-68
2021/01/20 04:45:00;;;;;;;12.48;8.65;;;5.60;92.20;;;;;;5047649;28;20025;-67
2021/01/20 04:47:28;;;;;;;14.82;8.48;;;5.60;91.90;;;;;;5048119;28;20058;-68
2021/01/20 04:49:54;;;;;;;16.73;8.93;;;5.60;91.60;;;;;;5047341;28;20029;-67
2021/01/20 04:52:22;;;;;;;15.60;8.50;;;5.60;91.90;;;;;;5047738;28;20020;-68
2021/01/20 04:54:49;;;;;;;11.85;6.05;;;5.60;91.80;;;;;;5042964;28;20037;-68
2021/01/20 04:57:15;;;;;;;11.85;7.43;;;5.60;91.40;;;;;;5049336;28;20162;-68
2021/01/20 04:59:41;;;;;;;13.52;7.85;;;5.60;91.50;;;;;;5046671;28;20486;-68
2021/01/20 05:02:13;;;;;;;15.18;8.40;;;5.60;92.00;;;;;;5048143;28;20504;-68
2021/01/20 05:04:42;;;;;;;11.98;7.28;;;5.50;92.20;;;;;;5042129;28;20048;-68
2021/01/20 05:07:08;;;;;;;18.33;8.60;;;5.60;91.40;;;;;;5052875;28;20107;-68
2021/01/20 05:09:35;;;;;;;14.18;7.45;;;5.60;91.70;;;;;;5046694;28;20389;-68
2021/01/20 05:12:00;;;;;;;10.30;6.85;;;5.50;91.90;;;;;;5046932;28;20029;-68
2021/01/20 05:14:26;;;;;;;11.98;7.30;;;5.50;92.30;;;;;;5050889;28;20028;-68
2021/01/20 05:17:04;;;;;;;14.38;7.65;;;5.50;92.10;;;;;;5048641;28;20024;-68
2021/01/20 05:19:40;;;;;;;11.75;6.85;;;5.40;92.00;;;;;;5042135;28;20079;-68
2021/01/20 05:22:07;;;;;;;11.93;7.65;;;5.40;92.40;;;;;;5052894;28;20124;-67
2021/01/20 05:24:36;;;;;;;13.65;7.38;;;5.30;93.00;;;;;;5050423;28;20057;-67
2021/01/20 05:27:03;;;;;;;14.10;6.85;;;5.40;92.90;;;;;;5050631;28;20102;-67
2021/01/20 05:29:29;;;;;;;12.10;7.25;;;5.30;93.80;;;;;;5050385;28;20021;-67
2021/01/20 05:31:55;;;;;;;13.95;7.57;;;5.30;93.60;;;;;;5052999;28;20017;-67
2021/01/20 05:34:32;;;;;;;10.32;6.75;;;5.20;93.90;;;;;;5042786;28;20029;-67
2021/01/20 05:37:01;;;;;;;15.48;7.22;;;5.10;94.10;;;;;;5052543;28;20102;-68
2021/01/20 05:39:27;;;;;;;9.90;6.18;;;5.20;93.80;;;;;;5048209;28;20025;-68
2021/01/20 05:42:12;;;;;;;16.40;6.28;;;5.20;93.50;;;;;;5050788;28;20036;-67
2021/01/20 05:44:39;;;;;;;12.63;6.57;;;5.30;93.60;;;;;;5042409;28;20029;-68
2021/01/20 05:47:12;;;;;;;14.10;6.68;;;5.30;93.40;;;;;;5052346;28;20029;-68
2021/01/20 05:49:38;;;;;;;10.32;5.88;;;5.30;93.30;;;;;;5047494;28;20033;-67
2021/01/20 05:52:14;;;;;;;14.68;6.78;;;5.30;93.30;;;;;;5049897;28;20540;-66
2021/01/20 05:54:41;;;;;;;13.77;6.65;;;5.30;93.60;;;;;;5050402;28;20048;-67
2021/01/20 05:57:15;;;;;;;10.48;6.18;;;5.30;93.10;;;;;;5038780;28;20482;-68
2021/01/20 05:59:42;;;;;;;12.45;6.65;;;5.30;93.10;;;;;;5041048;28;20036;-67
2021/01/20 06:02:09;;;;;;;11.27;6.32;;;5.30;93.30;;;;;;5025679;28;20033;-67
2021/01/20 06:04:36;;;;;;;9.73;5.97;;;5.30;93.20;;;;;;5027453;28;20393;-68
2021/01/20 06:07:08;;;;;;;11.00;5.80;;;5.40;92.60;;;;;;5026977;28;20544;-68
2021/01/20 06:09:36;;;;;;;10.95;5.90;;;5.30;93.10;;;;;;5006496;28;20029;-68
2021/01/20 06:12:09;;;;;;;14.43;5.80;;;5.40;92.90;;;;;;5026654;28;20604;-68
2021/01/20 06:14:35;;;;;;;13.50;5.63;;;5.40;92.80;;;;;;5026883;28;20029;-67
2021/01/20 06:17:03;;;;;;;9.18;4.78;;;5.60;91.80;;;;;;5027114;28;20401;-67
2021/01/20 06:19:31;;;;;;;10.70;5.82;;;5.60;91.20;;;;;;5026905;28;20409;-68
2021/01/20 06:21:59;;;;;;;8.95;5.32;;;5.50;92.00;;;;;;5026440;28;20057;-68
2021/01/20 06:24:41;;;;;;;10.88;5.93;;;5.50;92.10;;;;;;5027126;28;20035;-67
2021/01/20 06:27:34;;;;;;;9.95;5.57;;;5.60;91.70;;;;;;5046351;28;20125;-68
2021/01/20 06:30:41;;;;;;;12.23;5.55;;;5.60;91.70;;;;;;5036921;28;20029;-67
2021/01/20 06:33:10;;;;;;;10.07;5.68;;;5.60;91.90;;;;;;4950976;29;20027;-68
2021/01/20 06:35:46;;;;;;;10.63;6.30;;;5.60;91.90;;;;;;4960763;28;20035;-68
2021/01/20 06:38:27;;;;;;;12.13;6.10;;;5.60;92.10;;;;;;5006626;28;20052;-67
2021/01/20 06:40:53;;;;;;;12.68;6.07;;;5.60;91.90;;;;;;5048989;28;20454;-67
2021/01/20 06:43:36;;;;;;;15.70;6.20;;;5.60;91.90;;;;;;5047821;28;20029;-67
2021/01/20 06:46:26;;;;;;;9.43;5.20;;;5.60;92.40;;;;;;5047506;28;20489;-67
2021/01/20 06:48:55;;;;;;;13.70;5.72;;;5.60;92.60;;;;;;5078567;22;20374;-66
2021/01/20 06:51:24;;;;;;;10.32;5.03;;;5.60;92.00;;;;;;5041267;28;20512;-65
2021/01/20 06:54:06;;;;;;;8.82;5.25;;;5.60;92.00;;;;;;5042493;28;21052;-66
2021/01/20 06:56:33;;;;;;;14.35;6.13;;;5.70;91.50;;;;;;5041072;28;20056;-65
2021/01/20 06:59:18;;;;;;;10.63;5.25;;;5.70;91.60;;;;;;5043912;28;20074;-66
2021/01/20 07:02:10;;;;;;;11.55;5.30;;;5.70;91.60;;;;;;5030237;28;20055;-66
2021/01/20 07:04:39;;;;;;;10.98;5.88;;;5.70;92.10;;;;;;5027996;28;20218;-66
2021/01/20 07:07:09;;;;;;;16.38;6.20;;;5.70;92.10;;;;;;5042141;28;20060;-65
2021/01/20 07:09:50;;;;;;;10.35;5.22;;;5.60;92.80;;;;;;5040369;28;20032;-66
2021/01/20 07:12:17;;;;;;;11.25;5.70;;;5.60;92.50;;;;;;5019420;28;20362;-65
2021/01/20 07:14:43;;;;;;;9.38;5.53;;;5.60;92.40;;;;;;5037409;28;20033;-65
2021/01/20 07:17:10;;;;;;;7.75;4.95;;;5.80;91.80;;;;;;5044187;28;20031;-66
2021/01/20 07:19:38;;;;;;;13.57;5.63;;;5.70;92.40;;;;;;5031050;28;20066;-65
2021/01/20 07:22:04;;;;;;;10.02;5.55;;;5.80;92.30;;;;;;5040554;28;20057;-65
2021/01/20 07:24:30;;;;;;;9.65;4.95;;;5.80;92.20;;;;;;5050526;28;20502;-65
2021/01/20 07:27:01;;;;;;;9.23;5.05;;;5.80;91.80;;;;;;5039032;28;20040;-65
2021/01/20 07:29:30;;;;;;;;;;;5.90;91.80;;;;;;5046556;28;20104;-65
2021/01/20 07:31:56;;;;;;;9.63;5.47;;;6.00;91.50;;;;;;5043252;28;20318;-65
2021/01/20 07:34:21;;;;;;;9.68;5.35;;;6.00;91.70;;;;;;5046898;28;20048;-66
2021/01/20 07:36:48;;;;;;;9.55;5.05;;;6.10;91.30;;;;;;5037760;28;20110;-65
2021/01/20 07:39:25;;;;;;;8.07;4.40;;;6.00;91.70;;;;;;5045933;28;20115;-65
2021/01/20 07:41:56;;;;;;;9.73;4.75;;;6.10;91.00;;;;;;5043139;28;20067;-65
2021/01/20 07:44:22;;;;;;;9.45;5.10;;;6.10;91.10;;;;;;5047366;28;20091;-66
2021/01/20 07:47:08;;;;;;;9.10;4.70;;;6.10;90.80;;;;;;5040676;28;20063;-66
2021/01/20 07:49:35;;;;;;;6.60;3.95;;;6.10;91.30;;;;;;5045526;28;20474;-66
2021/01/20 07:52:00;;;;;;;5.85;3.97;;;6.10;91.10;;;;;;5043491;28;21495;-65
2021/01/20 07:54:39;;;;;;;9.18;4.25;;;6.10;90.80;;;;;;5048111;28;20108;-66
2021/01/20 07:57:07;;;;;;;5.53;3.92;;;6.20;90.50;;;;;;5016651;28;20037;-65
2021/01/20 07:59:33;;;;;;;8.40;3.80;;;6.30;90.40;;;;;;5037845;28;20029;-65
2021/01/20 08:02:08;;;;;;;8.65;3.80;;;6.30;89.60;;;;;;5044848;28;20048;-66
2021/01/20 08:04:34;;;;;;;6.35;3.65;;;6.30;90.20;;;;;;5041263;28;20630;-65
2021/01/20 08:07:00;;;;;;;6.78;3.75;;;6.30;90.30;;;;;;5044704;28;20052;-66
2021/01/20 08:09:39;;;;;;;6.40;3.53;;;6.30;89.90;;;;;;5043089;28;20112;-65
2021/01/20 08:12:10;;;;;;;8.00;3.88;;;6.30;90.00;;;;;;5042639;28;20533;-65
2021/01/20 08:14:40;;;;;;;6.68;3.25;;;6.30;89.80;;;;;;5048560;28;20020;-65
2021/01/20 08:17:06;;;;;;;6.20;3.40;;;6.40;89.60;;;;;;5042312;28;20509;-66
2021/01/20 08:19:34;;;;;;;5.15;3.05;;;6.50;88.90;;;;;;5049309;28;20045;-66
2021/01/20 08:22:14;;;;;;;10.13;3.38;;;6.40;89.60;;;;;;5041078;28;20602;-65
2021/01/20 08:24:58;;;;;;;8.27;4.18;;;6.50;88.80;;;;;;5041158;28;20025;-65
2021/01/20 08:27:25;;;;;;;7.20;3.70;;;6.50;89.40;;;;;;5044534;28;20155;-65
2021/01/20 08:29:53;;;;;;;6.18;3.20;;;6.50;88.60;;;;;;5038466;28;20021;-66
2021/01/20 08:32:19;;;;;;;7.22;3.60;;;6.50;89.10;;;;;;5038360;28;20037;-65
2021/01/20 08:34:47;;;;;;;5.25;2.50;;;6.60;88.30;;;;;;4973021;28;20190;-66
2021/01/20 08:37:13;;;;;;;6.68;3.30;;;6.70;87.60;;;;;;5043840;28;20480;-66
2021/01/20 08:40:00;;;;;;;7.30;2.97;;;6.70;88.00;;;;;;5047402;28;20034;-66
2021/01/20 08:42:38;;;;;;;5.95;3.08;;;6.70;87.90;;;;;;5046890;28;20033;-66
2021/01/20 08:45:12;;;;;;;7.50;3.03;;;6.80;86.80;;;;;;5039555;28;20025;-65
2021/01/20 08:47:53;;;;;;;7.28;3.22;;;6.80;86.80;;;;;;5039137;28;20118;-66
2021/01/20 08:50:20;;;;;;;4.97;2.95;;;6.80;86.90;;;;;;5046111;28;20119;-65
2021/01/20 08:52:48;;;;;;;5.28;2.90;;;6.80;86.60;;;;;;5043400;28;20033;-66
2021/01/20 08:55:23;;;;;;;4.55;2.65;;;6.90;86.70;;;;;;5042605;28;20074;-65
2021/01/20 08:58:19;;;;;;;5.90;2.85;;;6.90;86.90;;;;;;5039457;28;20413;-66
2021/01/20 09:00:47;;;;;;;6.82;2.60;;;6.90;87.00;;;;;;5044088;28;20028;-66
2021/01/20 09:03:12;;;;;;;6.10;3.17;;;7.00;86.00;;;;;;5050680;28;20035;-66
2021/01/20 09:05:38;;;;;;;6.20;2.83;;;6.90;86.60;;;;;;5043774;28;20033;-66
2021/01/20 09:08:04;;;;;;;6.50;2.72;;;6.90;86.70;;;;;;5044150;28;20435;-65
2021/01/20 09:10:29;;;;;;;6.28;2.88;;;7.00;85.70;;;;;;5040759;28;20114;-66
2021/01/20 09:12:55;;;;;;;5.65;2.55;;;7.10;86.20;;;;;;5044202;28;20041;-65
2021/01/20 09:15:21;;;;;;;5.22;2.58;;;7.10;84.90;;;;;;5044255;28;20029;-65
2021/01/20 09:17:46;;;;;;;5.35;2.50;;;7.10;85.90;;;;;;5042817;28;20161;-66
2021/01/20 09:20:12;;;;;;;5.10;2.85;;;7.10;85.00;;;;;;5041503;28;20332;-66
2021/01/20 09:22:41;;;;;;;7.35;2.55;;;7.20;85.60;;;;;;5046803;28;20397;-66
2021/01/20 09:25:07;;;;;;;5.05;2.65;;;7.30;84.20;;;;;;5049513;28;20025;-66
2021/01/20 09:27:32;;;;;;;5.18;2.50;;;7.30;85.20;;;;;;5045091;28;20146;-65
2021/01/20 09:29:58;;;;;;;5.28;2.10;;;7.30;84.60;;;;;;5047474;28;20025;-66
2021/01/20 09:32:23;;;;;;;8.02;2.38;;;7.20;84.70;;;;;;5036280;28;20129;-66
2021/01/20 09:34:49;;;;;;;4.65;2.65;;;7.30;84.40;;;;;;5048307;28;20512;-66
2021/01/20 09:37:14;;;;;;;4.35;2.50;;;7.30;85.20;;;;;;5041913;28;20108;-66
2021/01/20 09:39:40;;;;;;;4.32;2.20;;;7.40;83.60;;;;;;5043259;28;20103;-66
2021/01/20 09:42:06;;;;;;;6.47;2.53;;;7.40;84.20;;;;;;5043490;28;20028;-65
2021/01/20 09:44:31;;;;;;;5.25;2.53;;;7.30;85.20;;;;;;5050387;28;20639;-66
2021/01/20 09:46:57;;;;;;;3.90;2.10;;;7.40;83.30;;;;;;5046161;28;20500;-66
2021/01/20 09:49:23;;;;;;;5.45;2.67;;;7.50;83.10;;;;;;5045806;28;20036;-66
2021/01/20 09:51:49;;;;;;;5.45;2.65;;;7.40;83.90;;;;;;5041437;28;20044;-66
2021/01/20 09:54:14;;;;;;;5.85;2.17;;;7.50;82.90;;;;;;5048910;28;20445;-69
2021/01/20 09:56:40;;;;;;;4.43;2.33;;;7.50;82.60;;;;;;5038678;28;20053;-66
2021/01/20 09:59:05;;;;;;;3.72;2.00;;;7.50;82.40;;;;;;5035807;28;20078;-67
2021/01/20 10:01:31;;;;;;;5.32;2.63;;;7.60;82.00;;;;;;5043989;28;20075;-66
2021/01/20 10:03:57;;;;;;;5.03;2.40;;;7.70;82.10;;;;;;5046587;28;20603;-66
2021/01/20 10:06:22;;;;;;;6.05;2.20;;;7.60;83.00;;;;;;5018180;28;20513;-66
2021/01/20 10:08:48;;;;;;;5.40;2.70;;;7.70;81.80;;;;;;5036523;28;20086;-66
2021/01/20 10:11:13;;;;;;;5.15;1.95;;;7.80;82.80;;;;;;5031408;28;20108;-66
2021/01/20 10:13:39;;;;;;;4.45;2.17;;;7.80;81.70;;;;;;5042938;28;20135;-66
2021/01/20 10:16:05;;;;;;;3.10;1.88;;;7.90;81.70;;;;;;5046461;28;20154;-65
2021/01/20 10:18:31;;;;;;;4.22;2.08;;;7.90;83.10;;;;;;5050371;28;20035;-66
2021/01/20 10:20:57;;;;;;;4.93;1.77;;;8.00;82.40;;;;;;5033077;28;20675;-66
2021/01/20 10:23:24;;;;;;;4.63;2.33;;;8.00;82.00;;;;;;5045522;28;20051;-66
2021/01/20 10:25:52;;;;;;;3.70;2.10;;;8.00;81.10;;;;;;5043419;28;20098;-66
2021/01/20 10:28:18;;;;;;;4.93;2.17;;;8.00;82.30;;;;;;5034344;28;20379;-66
2021/01/20 10:30:43;;;;;;;3.88;2.00;;;8.10;81.10;;;;;;5038815;28;20040;-66
2021/01/20 10:33:10;;;;;;;4.47;1.80;;;8.10;80.80;;;;;;5044357;28;20061;-66
2021/01/20 10:35:36;;;;;;;5.75;2.00;;;8.10;81.20;;;;;;5038579;28;20029;-66
2021/01/20 10:38:02;;;;;;;5.40;2.00;;;8.10;81.10;;;;;;5035766;28;20036;-66
2021/01/20 10:40:27;;;;;;;3.78;2.00;;;8.20;80.90;;;;;;5049081;28;20107;-67
2021/01/20 10:42:53;;;;;;;6.32;2.20;;;8.30;79.00;;;;;;5028815;28;20110;-66
2021/01/20 10:45:19;;;;;;;3.78;1.80;;;8.20;80.60;;;;;;5042682;28;20135;-66
2021/01/20 10:47:45;;;;;;;3.22;1.83;;;8.30;79.90;;;;;;5017616;28;20037;-65
2021/01/20 10:50:12;;;;;;;3.28;1.77;;;8.30;80.10;;;;;;5046038;28;20044;-66
2021/01/20 10:52:37;;;;;;;3.13;1.63;;;8.30;80.30;;;;;;5048671;28;20370;-66
2021/01/20 10:55:04;;;;;;;4.68;2.08;;;8.30;80.30;;;;;;5045384;28;20033;-66
2021/01/20 10:57:29;;;;;;;3.75;1.88;;;8.40;79.50;;;;;;5043307;28;20036;-66
2021/01/20 10:59:56;;;;;;;3.42;1.70;;;8.30;81.00;;;;;;5014570;28;20273;-66
2021/01/20 11:02:22;;;;;;;3.72;1.73;;;8.30;80.50;;;;;;5035212;28;20029;-66
2021/01/20 11:04:48;;;;;;;2.85;1.67;;;8.40;80.30;;;;;;5032795;28;20596;-66
2021/01/20 11:07:14;;;;;;;3.38;1.63;;;8.40;79.90;;;;;;5042085;28;20033;-66
2021/01/20 11:09:39;;;;;;;3.38;1.80;;;8.50;79.70;;;;;;5033213;28;20170;-66
2021/01/20 11:12:05;;;;;;;3.80;1.50;;;8.50;81.30;;;;;;5048028;28;20028;-66
2021/01/20 11:14:32;;;;;;;2.53;1.42;;;8.50;79.90;;;;;;5031725;28;20025;-67
2021/01/20 11:16:58;;;;;;;3.00;1.80;;;8.50;80.80;;;;;;5041212;28;20033;-66
2021/01/20 11:19:24;;;;;;;2.97;1.58;;;8.50;80.40;;;;;;5038528;28;20029;-67
2021/01/20 11:21:50;;;;;;;4.45;1.70;;;8.50;81.80;;;;;;5047526;28;20036;-67
2021/01/20 11:24:20;;;;;;;3.55;1.60;;;8.50;81.70;;;;;;5036571;28;20041;-67
2021/01/20 11:26:46;;;;;;;3.67;1.80;;;8.50;80.90;;;;;;5038097;28;20045;-67
2021/01/20 11:29:12;;;;;;;4.78;2.10;;;8.50;81.60;;;;;;5039075;28;20041;-67
2021/01/20 11:31:38;;;;;;;6.65;2.05;;;8.60;81.10;;;;;;5034010;28;20480;-67
2021/01/20 11:34:04;;;;;;;2.97;1.67;;;8.50;81.30;;;;;;5042708;28;20033;-66
2021/01/20 11:36:29;;;;;;;3.22;1.60;;;8.50;81.50;;;;;;5037038;28;20072;-67
2021/01/20 11:38:55;;;;;;;2.65;1.50;;;8.50;81.70;;;;;;5041981;28;20045;-67
2021/01/20 11:41:20;;;;;;;2.85;1.55;;;8.50;82.00;;;;;;5031522;28;20122;-67
2021/01/20 11:43:47;;;;;;;3.83;1.55;;;8.50;82.00;;;;;;5026649;28;20148;-67
2021/01/20 11:46:13;;;;;;;2.83;1.55;;;8.50;82.60;;;;;;5036062;28;20076;-67
2021/01/20 11:48:39;;;;;;;2.80;1.50;;;8.50;81.90;;;;;;5030010;28;20352;-67
2021/01/20 11:51:05;;;;;;;2.95;1.52;;;8.60;81.70;;;;;;5030572;28;20127;-66
2021/01/20 11:53:30;;;;;;;4.65;1.83;;;8.50;82.20;;;;;;5031181;28;20029;-66
2021/01/20 11:55:56;;;;;;;4.00;1.70;;;8.50;83.20;;;;;;5028311;28;20064;-67
2021/01/20 11:58:21;;;;;;;3.03;1.63;;;8.60;82.30;;;;;;5038998;28;20029;-67
2021/01/20 12:00:47;;;;;;;3.70;1.90;;;8.60;82.90;;;;;;5033024;28;20033;-66
2021/01/20 12:03:13;;;;;;;3.08;1.73;;;8.60;82.90;;;;;;5030959;28;20512;-67
2021/01/20 12:05:38;;;;;;;3.63;1.90;;;8.60;82.30;;;;;;5038444;28;20029;-67
2021/01/20 12:08:04;;;;;;;4.80;2.08;;;8.60;83.00;;;;;;5033999;28;20509;-67
2021/01/20 12:10:30;;;;;;;5.93;2.03;;;8.60;82.40;;;;;;5030233;28;20025;-67
2021/01/20 12:12:55;;;;;;;3.00;1.55;;;8.70;82.20;;;;;;5036977;28;20024;-66
2021/01/20 12:15:21;;;;;;;3.03;1.42;;;8.60;83.40;;;;;;5043917;28;20435;-67
2021/01/20 12:17:47;;;;;;;3.42;1.80;;;8.70;81.90;;;;;;5030828;28;20025;-67
2021/01/20 12:20:13;;;;;;;2.25;1.38;;;8.70;82.20;;;;;;5035279;28;20033;-66
2021/01/20 12:22:38;;;;;;;3.88;1.73;;;8.70;82.10;;;;;;5032092;28;20029;-67
2021/01/20 12:25:06;;;;;;;3.58;1.63;;;8.60;83.00;;;;;;5024121;28;20029;-67
2021/01/20 12:27:32;;;;;;;2.50;1.65;;;8.70;82.30;;;;;;5044566;28;20108;-67
2021/01/20 12:30:01;;;;;;;2.00;1.13;;;8.60;83.20;;;;;;5056841;28;20496;-67
2021/01/20 12:32:27;;;;;;;4.68;1.40;;;8.70;83.70;;;;;;5039760;28;20029;-66
2021/01/20 12:34:52;;;;;;;3.92;1.60;;;8.80;82.40;;;;;;5026208;28;20083;-67
2021/01/20 12:37:18;;;;;;;4.88;1.60;;;8.80;82.60;;;;;;5033422;28;20459;-66
2021/01/20 12:39:44;;;;;;;4.97;1.60;;;8.80;82.80;;;;;;5025624;28;20127;-67
2021/01/20 12:42:09;;;;;;;3.45;1.23;;;8.80;82.40;;;;;;5036814;28;20422;-66
2021/01/20 12:44:35;;;;;;;3.95;1.50;;;8.80;83.10;;;;;;5025866;28;20033;-66
2021/01/20 12:47:00;;;;;;;3.47;1.52;;;8.90;82.40;;;;;;5039532;28;20029;-66
2021/01/20 12:49:26;;;;;;;3.38;1.33;;;9.00;82.60;;;;;;5057263;22;20100;-64
2021/01/20 12:51:52;;;;;;;3.53;1.60;;;9.10;82.30;;;;;;5058139;28;20028;-65
2021/01/20 12:54:18;;;;;;;2.80;1.38;;;9.30;81.00;;;;;;5067832;28;20021;-64